createdAt,value
2018-06-09T00:00:20.537Z,0
2018-06-09T00:01:21.920Z,0
2018-06-09T00:02:23.315Z,0
2018-06-09T00:03:24.713Z,0
2018-06-09T00:04:26.111Z,0
2018-06-09T00:05:27.506Z,0
2018-06-09T00:06:28.904Z,0
2018-06-09T00:07:30.298Z,0
2018-06-09T00:08:31.696Z,0
2018-06-09T00:09:33.095Z,0
2018-06-09T00:10:34.481Z,0
2018-06-09T00:11:35.878Z,0
2018-06-09T00:12:37.271Z,0
2018-06-09T00:13:38.674Z,0
2018-06-09T00:14:40.069Z,0
2018-06-09T00:15:41.463Z,0
2018-06-09T00:16:42.859Z,0
2018-06-09T00:17:44.252Z,0
2018-06-09T00:18:45.652Z,0
2018-06-09T00:19:47.040Z,0
2018-06-09T00:20:48.438Z,0
2018-06-09T00:21:49.835Z,0
2018-06-09T00:22:51.251Z,0
2018-06-09T00:23:52.653Z,0
2018-06-09T00:24:54.046Z,0
2018-06-09T00:25:55.442Z,0
2018-06-09T00:26:56.833Z,0
2018-06-09T00:27:58.245Z,0
2018-06-09T00:28:59.664Z,0
2018-06-09T00:30:01.063Z,0
2018-06-09T00:31:02.462Z,0
2018-06-09T00:32:03.854Z,0
2018-06-09T00:33:05.249Z,0
2018-06-09T00:34:06.645Z,0
2018-06-09T00:35:08.041Z,0
2018-06-09T00:36:09.440Z,0
2018-06-09T00:37:10.837Z,0
2018-06-09T00:38:12.232Z,0
2018-06-09T00:39:13.627Z,0
2018-06-09T00:40:15.021Z,0
2018-06-09T00:41:16.417Z,0
2018-06-09T00:42:17.811Z,0
2018-06-09T00:43:19.205Z,0
2018-06-09T00:44:20.598Z,0
2018-06-09T00:45:21.995Z,0
2018-06-09T00:46:23.389Z,0
2018-06-09T00:47:24.781Z,0
2018-06-09T00:48:26.175Z,0
2018-06-09T00:49:27.575Z,0
2018-06-09T00:50:28.969Z,0
2018-06-09T00:51:30.363Z,0
2018-06-09T00:52:31.762Z,0
2018-06-09T00:53:33.154Z,0
2018-06-09T00:54:34.547Z,0
2018-06-09T00:55:35.944Z,0
2018-06-09T00:56:37.337Z,0
2018-06-09T00:57:38.739Z,0
2018-06-09T00:58:40.137Z,0
2018-06-09T00:59:41.536Z,0
2018-06-09T01:00:42.930Z,0
2018-06-09T01:01:44.321Z,0
2018-06-09T01:02:45.719Z,0
2018-06-09T01:03:47.114Z,0
2018-06-09T01:04:48.524Z,0
2018-06-09T01:05:49.925Z,0
2018-06-09T01:06:51.321Z,0
2018-06-09T01:07:52.716Z,0
2018-06-09T01:08:54.109Z,0
2018-06-09T01:09:55.508Z,0
2018-06-09T01:10:56.903Z,0
2018-06-09T01:11:58.298Z,0
2018-06-09T01:12:59.855Z,0
2018-06-09T01:14:01.256Z,0
2018-06-09T01:15:02.652Z,0
2018-06-09T01:16:04.043Z,0
2018-06-09T01:17:05.439Z,0
2018-06-09T01:18:06.833Z,0
2018-06-09T01:19:08.224Z,0
2018-06-09T01:20:09.627Z,0
2018-06-09T01:21:11.026Z,0
2018-06-09T01:22:12.420Z,0
2018-06-09T01:23:13.816Z,0
2018-06-09T01:24:15.209Z,0
2018-06-09T01:25:16.608Z,0
2018-06-09T01:26:18.001Z,0
2018-06-09T01:27:19.399Z,0
2018-06-09T01:28:20.797Z,0
2018-06-09T01:29:22.187Z,0
2018-06-09T01:30:23.584Z,0
2018-06-09T01:31:24.978Z,0
2018-06-09T01:32:26.375Z,0
2018-06-09T01:33:27.769Z,0
2018-06-09T01:34:29.168Z,0
2018-06-09T01:35:30.561Z,0
2018-06-09T01:36:31.955Z,0
2018-06-09T01:37:33.351Z,0
2018-06-09T01:38:34.743Z,0
2018-06-09T01:39:36.141Z,0
2018-06-09T01:40:37.540Z,0
2018-06-09T01:41:38.946Z,0
2018-06-09T01:42:40.340Z,0
2018-06-09T01:43:41.735Z,0
2018-06-09T01:44:43.132Z,0
2018-06-09T01:45:44.528Z,0
2018-06-09T01:46:45.925Z,0
2018-06-09T01:47:47.317Z,0
2018-06-09T01:48:48.716Z,0
2018-06-09T01:49:50.108Z,0
2018-06-09T01:50:51.503Z,0
2018-06-09T01:51:52.902Z,0
2018-06-09T01:52:54.295Z,0
2018-06-09T01:53:55.690Z,0
2018-06-09T01:54:57.090Z,0
2018-06-09T01:55:58.481Z,0
2018-06-09T01:56:59.905Z,0
2018-06-09T01:58:01.301Z,0
2018-06-09T01:59:02.689Z,0
2018-06-09T02:00:04.090Z,0
2018-06-09T02:01:05.484Z,0
2018-06-09T02:02:06.883Z,0
2018-06-09T02:03:08.276Z,0
2018-06-09T02:04:09.674Z,0
2018-06-09T02:05:11.073Z,0
2018-06-09T02:06:12.464Z,0
2018-06-09T02:07:13.861Z,0
2018-06-09T02:08:15.253Z,0
2018-06-09T02:09:16.652Z,0
2018-06-09T02:10:18.050Z,0
2018-06-09T02:11:19.451Z,0
2018-06-09T02:12:20.847Z,0
2018-06-09T02:13:22.237Z,0
2018-06-09T02:14:23.634Z,0
2018-06-09T02:15:25.028Z,0
2018-06-09T02:16:26.424Z,0
2018-06-09T02:17:27.841Z,0
2018-06-09T02:18:29.239Z,0
2018-06-09T02:19:30.642Z,0
2018-06-09T02:20:32.070Z,0
2018-06-09T02:21:33.469Z,0
2018-06-09T02:22:34.862Z,0
2018-06-09T02:23:36.260Z,0
2018-06-09T02:24:37.658Z,0
2018-06-09T02:25:39.052Z,0
2018-06-09T02:26:40.448Z,0
2018-06-09T02:27:41.840Z,0
2018-06-09T02:28:43.235Z,0
2018-06-09T02:29:44.629Z,0
2018-06-09T02:30:46.081Z,0
2018-06-09T02:31:47.421Z,0
2018-06-09T02:32:48.820Z,0
2018-06-09T02:33:50.215Z,0
2018-06-09T02:34:51.607Z,0
2018-06-09T02:35:53.003Z,0
2018-06-09T02:36:54.398Z,0
2018-06-09T02:37:55.792Z,0
2018-06-09T02:38:57.195Z,0
2018-06-09T02:39:58.593Z,0
2018-06-09T02:41:00.025Z,0
2018-06-09T02:42:01.413Z,0
2018-06-09T02:43:02.806Z,0
2018-06-09T02:44:04.202Z,0
2018-06-09T02:45:05.597Z,0
2018-06-09T02:46:06.995Z,0
2018-06-09T02:47:08.390Z,0
2018-06-09T02:48:09.790Z,0
2018-06-09T02:49:11.179Z,0
2018-06-09T02:50:12.577Z,0
2018-06-09T02:51:13.972Z,0
2018-06-09T02:52:15.370Z,0
2018-06-09T02:53:16.765Z,0
2018-06-09T02:54:18.165Z,0
2018-06-09T02:55:19.555Z,0
2018-06-09T02:56:20.949Z,4
2018-06-09T02:57:22.346Z,4
2018-06-09T02:58:23.740Z,4
2018-06-09T02:59:25.140Z,0
2018-06-09T03:00:26.539Z,0
2018-06-09T03:01:27.937Z,0
2018-06-09T03:02:29.331Z,0
2018-06-09T03:03:30.726Z,4
2018-06-09T03:04:32.121Z,0
2018-06-09T03:05:33.515Z,4
2018-06-09T03:06:34.913Z,4
2018-06-09T03:07:36.317Z,4
2018-06-09T03:08:37.714Z,4
2018-06-09T03:09:39.114Z,8
2018-06-09T03:10:40.519Z,8
2018-06-09T03:11:41.917Z,8
2018-06-09T03:12:43.337Z,8
2018-06-09T03:13:44.737Z,4
2018-06-09T03:14:46.132Z,4
2018-06-09T03:15:47.532Z,8
2018-06-09T03:16:48.930Z,8
2018-06-09T03:17:50.321Z,8
2018-06-09T03:18:51.715Z,8
2018-06-09T03:19:53.112Z,12
2018-06-09T03:20:54.511Z,12
2018-06-09T03:21:55.919Z,16
2018-06-09T03:22:57.313Z,20
2018-06-09T03:23:58.708Z,16
2018-06-09T03:25:00.131Z,20
2018-06-09T03:26:01.546Z,24
2018-06-09T03:27:02.939Z,24
2018-06-09T03:28:04.334Z,28
2018-06-09T03:29:05.734Z,28
2018-06-09T03:30:07.136Z,28
2018-06-09T03:31:08.532Z,32
2018-06-09T03:32:09.927Z,32
2018-06-09T03:33:11.323Z,36
2018-06-09T03:34:12.723Z,40
2018-06-09T03:35:14.124Z,44
2018-06-09T03:36:15.515Z,52
2018-06-09T03:37:16.915Z,56
2018-06-09T03:38:18.310Z,56
2018-06-09T03:39:19.710Z,60
2018-06-09T03:40:21.099Z,60
2018-06-09T03:41:22.495Z,60
2018-06-09T03:42:23.894Z,60
2018-06-09T03:43:25.331Z,68
2018-06-09T03:44:26.714Z,76
2018-06-09T03:45:28.108Z,76
2018-06-09T03:46:29.509Z,76
2018-06-09T03:47:30.901Z,76
2018-06-09T03:48:32.296Z,72
2018-06-09T03:49:33.696Z,76
2018-06-09T03:50:35.148Z,80
2018-06-09T03:51:36.493Z,88
2018-06-09T03:52:37.889Z,92
2018-06-09T03:53:39.286Z,100
2018-06-09T03:54:40.686Z,108
2018-06-09T03:55:42.082Z,112
2018-06-09T03:56:43.481Z,112
2018-06-09T03:57:44.878Z,112
2018-06-09T03:58:46.280Z,116
2018-06-09T03:59:47.685Z,116
2018-06-09T04:00:49.076Z,120
2018-06-09T04:01:50.475Z,120
2018-06-09T04:02:51.873Z,128
2018-06-09T04:03:53.272Z,132
2018-06-09T04:04:54.663Z,148
2018-06-09T04:05:56.061Z,156
2018-06-09T04:06:57.475Z,168
2018-06-09T04:07:58.869Z,172
2018-06-09T04:09:00.335Z,184
2018-06-09T04:10:01.783Z,196
2018-06-09T04:11:03.192Z,208
2018-06-09T04:12:04.592Z,208
2018-06-09T04:13:05.990Z,208
2018-06-09T04:14:07.387Z,204
2018-06-09T04:15:08.783Z,196
2018-06-09T04:16:10.180Z,200
2018-06-09T04:17:11.574Z,200
2018-06-09T04:18:12.986Z,196
2018-06-09T04:19:14.383Z,196
2018-06-09T04:20:15.780Z,204
2018-06-09T04:21:17.185Z,224
2018-06-09T04:22:18.580Z,232
2018-06-09T04:23:19.975Z,236
2018-06-09T04:24:21.374Z,244
2018-06-09T04:25:22.773Z,240
2018-06-09T04:26:24.225Z,228
2018-06-09T04:27:25.626Z,224
2018-06-09T04:28:27.029Z,228
2018-06-09T04:29:28.420Z,248
2018-06-09T04:30:29.822Z,256
2018-06-09T04:31:31.224Z,268
2018-06-09T04:32:32.621Z,280
2018-06-09T04:33:34.062Z,280
2018-06-09T04:34:35.414Z,276
2018-06-09T04:35:36.827Z,280
2018-06-09T04:36:38.239Z,284
2018-06-09T04:37:39.675Z,300
2018-06-09T04:38:41.061Z,312
2018-06-09T04:39:42.463Z,324
2018-06-09T04:40:43.868Z,348
2018-06-09T04:41:45.264Z,364
2018-06-09T04:42:46.665Z,376
2018-06-09T04:43:48.062Z,388
2018-06-09T04:44:49.460Z,404
2018-06-09T04:45:50.855Z,412
2018-06-09T04:46:52.259Z,432
2018-06-09T04:47:53.659Z,432
2018-06-09T04:48:55.059Z,416
2018-06-09T04:49:56.458Z,400
2018-06-09T04:50:57.862Z,392
2018-06-09T04:51:59.254Z,380
2018-06-09T04:53:00.706Z,380
2018-06-09T04:54:02.109Z,384
2018-06-09T04:55:03.523Z,384
2018-06-09T04:56:04.926Z,364
2018-06-09T04:57:06.320Z,348
2018-06-09T04:58:07.717Z,340
2018-06-09T04:59:09.120Z,348
2018-06-09T05:00:10.517Z,360
2018-06-09T05:01:11.938Z,368
2018-06-09T05:02:13.329Z,384
2018-06-09T05:03:14.729Z,404
2018-06-09T05:04:16.124Z,424
2018-06-09T05:05:17.526Z,452
2018-06-09T05:06:18.923Z,476
2018-06-09T05:07:20.324Z,492
2018-06-09T05:08:21.723Z,468
2018-06-09T05:09:23.122Z,428
2018-06-09T05:10:24.522Z,424
2018-06-09T05:11:25.921Z,400
2018-06-09T05:12:27.321Z,400
2018-06-09T05:13:28.762Z,392
2018-06-09T05:14:30.162Z,404
2018-06-09T05:15:31.562Z,412
2018-06-09T05:16:32.962Z,412
2018-06-09T05:17:34.360Z,412
2018-06-09T05:18:35.757Z,392
2018-06-09T05:19:37.170Z,368
2018-06-09T05:20:38.569Z,372
2018-06-09T05:21:39.970Z,416
2018-06-09T05:22:41.370Z,448
2018-06-09T05:23:42.772Z,464
2018-06-09T05:24:44.202Z,428
2018-06-09T05:25:45.600Z,424
2018-06-09T05:26:46.996Z,424
2018-06-09T05:27:48.408Z,452
2018-06-09T05:28:49.805Z,484
2018-06-09T05:29:51.203Z,524
2018-06-09T05:30:52.608Z,548
2018-06-09T05:31:54.012Z,584
2018-06-09T05:32:55.406Z,628
2018-06-09T05:33:56.804Z,600
2018-06-09T05:34:58.203Z,620
2018-06-09T05:35:59.604Z,644
2018-06-09T05:37:01.047Z,648
2018-06-09T05:38:02.451Z,668
2018-06-09T05:39:03.850Z,664
2018-06-09T05:40:05.247Z,676
2018-06-09T05:41:06.642Z,668
2018-06-09T05:42:08.043Z,644
2018-06-09T05:43:09.439Z,572
2018-06-09T05:44:10.838Z,556
2018-06-09T05:45:12.243Z,576
2018-06-09T05:46:13.639Z,600
2018-06-09T05:47:15.035Z,596
2018-06-09T05:48:16.429Z,612
2018-06-09T05:49:17.829Z,596
2018-06-09T05:50:19.226Z,620
2018-06-09T05:51:20.626Z,660
2018-06-09T05:52:22.024Z,740
2018-06-09T05:53:23.434Z,720
2018-06-09T05:54:24.833Z,756
2018-06-09T05:55:26.231Z,772
2018-06-09T05:56:27.626Z,756
2018-06-09T05:57:29.024Z,684
2018-06-09T05:58:30.421Z,656
2018-06-09T05:59:31.904Z,656
2018-06-09T06:00:33.381Z,604
2018-06-09T06:01:34.779Z,564
2018-06-09T06:02:36.178Z,604
2018-06-09T06:03:37.588Z,604
2018-06-09T06:04:38.990Z,636
2018-06-09T06:05:40.388Z,736
2018-06-09T06:06:41.789Z,788
2018-06-09T06:07:43.191Z,828
2018-06-09T06:08:44.590Z,868
2018-06-09T06:09:45.990Z,880
2018-06-09T06:10:47.414Z,788
2018-06-09T06:11:48.815Z,780
2018-06-09T06:12:50.218Z,744
2018-06-09T06:13:51.614Z,728
2018-06-09T06:14:53.016Z,724
2018-06-09T06:15:54.413Z,776
2018-06-09T06:16:55.808Z,832
2018-06-09T06:17:57.212Z,808
2018-06-09T06:18:58.617Z,804
2018-06-09T06:20:00.045Z,856
2018-06-09T06:21:01.467Z,840
2018-06-09T06:22:02.888Z,832
2018-06-09T06:23:04.275Z,840
2018-06-09T06:24:05.670Z,876
2018-06-09T06:25:07.074Z,988
2018-06-09T06:26:08.476Z,1120
2018-06-09T06:27:09.870Z,1256
2018-06-09T06:28:11.274Z,1296
2018-06-09T06:29:12.674Z,1400
2018-06-09T06:30:14.070Z,1384
2018-06-09T06:31:15.474Z,1456
2018-06-09T06:32:16.872Z,1528
2018-06-09T06:33:18.271Z,1492
2018-06-09T06:34:19.669Z,1476
2018-06-09T06:35:21.073Z,1432
2018-06-09T06:36:22.475Z,1328
2018-06-09T06:37:23.870Z,1332
2018-06-09T06:38:25.272Z,1448
2018-06-09T06:39:26.668Z,1524
2018-06-09T06:40:28.070Z,1584
2018-06-09T06:41:29.471Z,1508
2018-06-09T06:42:30.868Z,1464
2018-06-09T06:43:32.272Z,1384
2018-06-09T06:44:33.669Z,1372
2018-06-09T06:45:35.067Z,1412
2018-06-09T06:46:36.468Z,1384
2018-06-09T06:47:37.871Z,1328
2018-06-09T06:48:39.273Z,1288
2018-06-09T06:49:40.670Z,1252
2018-06-09T06:50:42.075Z,1408
2018-06-09T06:51:43.473Z,1484
2018-06-09T06:52:44.868Z,1464
2018-06-09T06:53:46.268Z,1532
2018-06-09T06:54:47.667Z,1576
2018-06-09T06:55:49.071Z,1624
2018-06-09T06:56:50.472Z,1556
2018-06-09T06:57:51.873Z,1648
2018-06-09T06:58:53.269Z,1780
2018-06-09T06:59:54.668Z,1788
2018-06-09T07:00:56.069Z,1908
2018-06-09T07:01:57.486Z,2008
2018-06-09T07:02:58.885Z,2044
2018-06-09T07:04:00.288Z,1928
2018-06-09T07:05:01.776Z,1924
2018-06-09T07:06:03.178Z,1968
2018-06-09T07:07:04.578Z,2068
2018-06-09T07:08:05.976Z,1964
2018-06-09T07:09:07.378Z,1820
2018-06-09T07:10:08.792Z,1616
2018-06-09T07:11:10.191Z,1632
2018-06-09T07:12:12.121Z,1684
2018-06-09T07:13:13.524Z,1740
2018-06-09T07:14:14.924Z,1784
2018-06-09T07:15:16.323Z,1920
2018-06-09T07:16:17.724Z,1988
2018-06-09T07:17:19.124Z,1936
2018-06-09T07:18:20.525Z,2164
2018-06-09T07:19:21.930Z,2108
2018-06-09T07:20:23.333Z,1988
2018-06-09T07:21:24.731Z,1984
2018-06-09T07:22:26.614Z,2008
2018-06-09T07:23:27.982Z,2168
2018-06-09T07:24:29.381Z,2092
2018-06-09T07:25:30.783Z,2088
2018-06-09T07:26:32.195Z,2004
2018-06-09T07:27:33.595Z,1984
2018-06-09T07:28:34.997Z,2136
2018-06-09T07:29:36.395Z,2324
2018-06-09T07:30:37.801Z,2320
2018-06-09T07:31:39.216Z,2212
2018-06-09T07:32:40.616Z,2040
2018-06-09T07:33:42.020Z,2304
2018-06-09T07:34:43.419Z,2536
2018-06-09T07:35:44.817Z,2464
2018-06-09T07:36:46.217Z,2484
2018-06-09T07:37:47.617Z,2496
2018-06-09T07:38:49.021Z,2540
2018-06-09T07:39:50.420Z,2528
2018-06-09T07:40:51.824Z,2504
2018-06-09T07:41:53.226Z,2632
2018-06-09T07:42:54.632Z,2800
2018-06-09T07:43:56.034Z,2708
2018-06-09T07:44:57.435Z,2744
2018-06-09T07:45:58.834Z,2792
2018-06-09T07:47:00.245Z,2864
2018-06-09T07:48:01.706Z,3224
2018-06-09T07:49:03.115Z,3152
2018-06-09T07:50:04.515Z,3088
2018-06-09T07:51:05.912Z,2612
2018-06-09T07:52:07.313Z,2820
2018-06-09T07:53:08.717Z,2800
2018-06-09T07:54:10.157Z,2852
2018-06-09T07:55:11.535Z,2896
2018-06-09T07:56:12.938Z,2976
2018-06-09T07:57:14.333Z,2788
2018-06-09T07:58:15.733Z,3060
2018-06-09T07:59:17.137Z,2864
2018-06-09T08:00:18.538Z,2676
2018-06-09T08:01:19.939Z,2580
2018-06-09T08:02:21.345Z,2800
2018-06-09T08:03:22.743Z,2980
2018-06-09T08:04:24.141Z,2792
2018-06-09T08:05:25.544Z,2460
2018-06-09T08:06:26.947Z,2460
2018-06-09T08:07:28.352Z,2516
2018-06-09T08:08:29.758Z,2712
2018-06-09T08:09:31.161Z,3024
2018-06-09T08:10:32.560Z,3452
2018-06-09T08:11:33.964Z,3620
2018-06-09T08:12:35.367Z,4060
2018-06-09T08:13:36.772Z,4224
2018-06-09T08:14:38.175Z,3868
2018-06-09T08:15:39.580Z,3708
2018-06-09T08:16:40.984Z,3680
2018-06-09T08:17:42.382Z,3796
2018-06-09T08:18:43.782Z,3444
2018-06-09T08:19:45.185Z,3076
2018-06-09T08:20:46.585Z,2844
2018-06-09T08:21:48.007Z,2732
2018-06-09T08:22:49.411Z,2800
2018-06-09T08:23:50.815Z,2920
2018-06-09T08:24:52.218Z,3076
2018-06-09T08:25:53.625Z,3280
2018-06-09T08:26:55.027Z,3500
2018-06-09T08:27:56.429Z,3852
2018-06-09T08:28:57.831Z,4068
2018-06-09T08:29:59.230Z,3956
2018-06-09T08:31:00.626Z,3920
2018-06-09T08:32:02.113Z,3404
2018-06-09T08:33:03.515Z,3176
2018-06-09T08:34:04.917Z,3128
2018-06-09T08:35:06.320Z,3416
2018-06-09T08:36:07.773Z,3416
2018-06-09T08:37:09.125Z,3180
2018-06-09T08:38:10.528Z,3040
2018-06-09T08:39:11.925Z,2796
2018-06-09T08:40:13.328Z,2612
2018-06-09T08:41:14.731Z,2588
2018-06-09T08:42:16.140Z,2728
2018-06-09T08:43:17.538Z,2936
2018-06-09T08:44:18.940Z,3236
2018-06-09T08:45:20.344Z,3548
2018-06-09T08:46:21.744Z,3636
2018-06-09T08:47:23.144Z,3692
2018-06-09T08:48:24.543Z,3856
2018-06-09T08:49:25.948Z,3808
2018-06-09T08:50:27.358Z,3820
2018-06-09T08:51:28.752Z,4152
2018-06-09T08:52:30.150Z,4592
2018-06-09T08:53:31.553Z,4592
2018-06-09T08:54:32.967Z,4072
2018-06-09T08:55:34.358Z,3888
2018-06-09T08:56:35.764Z,4044
2018-06-09T08:57:37.169Z,4064
2018-06-09T08:58:38.614Z,4616
2018-06-09T08:59:40.014Z,5296
2018-06-09T09:00:41.408Z,5428
2018-06-09T09:01:42.883Z,4856
2018-06-09T09:02:44.252Z,5508
2018-06-09T09:03:45.652Z,6392
2018-06-09T09:04:47.055Z,6952
2018-06-09T09:05:48.470Z,7216
2018-06-09T09:06:49.872Z,6472
2018-06-09T09:07:51.465Z,5708
2018-06-09T09:08:52.866Z,4836
2018-06-09T09:09:54.267Z,4972
2018-06-09T09:10:55.668Z,5528
2018-06-09T09:11:57.075Z,5960
2018-06-09T09:12:58.478Z,6200
2018-06-09T09:13:59.897Z,5680
2018-06-09T09:15:01.291Z,5152
2018-06-09T09:16:02.763Z,4980
2018-06-09T09:17:04.133Z,5448
2018-06-09T09:18:05.532Z,6120
2018-06-09T09:19:06.938Z,5872
2018-06-09T09:20:08.338Z,5500
2018-06-09T09:21:09.742Z,5708
2018-06-09T09:22:11.142Z,5700
2018-06-09T09:23:12.544Z,5372
2018-06-09T09:24:13.940Z,4964
2018-06-09T09:25:15.344Z,4964
2018-06-09T09:26:16.742Z,5388
2018-06-09T09:27:18.185Z,5600
2018-06-09T09:28:19.593Z,5652
2018-06-09T09:29:21.033Z,5500
2018-06-09T09:30:22.446Z,5316
2018-06-09T09:31:23.867Z,5284
2018-06-09T09:32:25.259Z,5192
2018-06-09T09:33:26.659Z,5156
2018-06-09T09:34:28.061Z,5648
2018-06-09T09:35:29.466Z,6052
2018-06-09T09:36:30.864Z,6668
2018-06-09T09:37:32.264Z,6956
2018-06-09T09:38:33.665Z,6612
2018-06-09T09:39:35.066Z,6412
2018-06-09T09:40:36.473Z,6224
2018-06-09T09:41:37.875Z,5692
2018-06-09T09:42:39.278Z,5308
2018-06-09T09:43:40.677Z,4624
2018-06-09T09:44:42.077Z,4484
2018-06-09T09:45:43.476Z,4908
2018-06-09T09:46:44.876Z,5704
2018-06-09T09:47:46.281Z,7552
2018-06-09T09:48:47.691Z,9324
2018-06-09T09:49:49.097Z,9472
2018-06-09T09:50:50.498Z,8996
2018-06-09T09:51:51.898Z,9180
2018-06-09T09:52:53.299Z,10724
2018-06-09T09:53:54.702Z,10076
2018-06-09T09:54:56.134Z,10036
2018-06-09T09:55:57.504Z,9516
2018-06-09T09:56:58.908Z,7896
2018-06-09T09:58:00.313Z,7080
2018-06-09T09:59:01.710Z,7212
2018-06-09T10:00:03.125Z,8192
2018-06-09T10:01:04.624Z,9476
2018-06-09T10:02:06.026Z,10976
2018-06-09T10:03:07.430Z,10808
2018-06-09T10:04:08.833Z,8656
2018-06-09T10:05:10.233Z,8036
2018-06-09T10:06:11.634Z,6940
2018-06-09T10:07:13.036Z,7720
2018-06-09T10:08:14.448Z,7592
2018-06-09T10:09:15.858Z,8772
2018-06-09T10:10:17.259Z,9536
2018-06-09T10:11:18.662Z,10928
2018-06-09T10:12:20.064Z,11368
2018-06-09T10:13:21.495Z,9552
2018-06-09T10:14:22.890Z,9084
2018-06-09T10:15:24.294Z,10128
2018-06-09T10:16:25.696Z,9960
2018-06-09T10:17:28.054Z,12016
2018-06-09T10:18:28.479Z,11024
2018-06-09T10:19:29.878Z,8236
2018-06-09T10:20:31.324Z,7152
2018-06-09T10:21:32.723Z,6892
2018-06-09T10:22:34.127Z,7316
2018-06-09T10:23:35.531Z,8636
2018-06-09T10:24:36.942Z,9092
2018-06-09T10:25:38.387Z,8900
2018-06-09T10:26:39.790Z,11616
2018-06-09T10:27:41.190Z,10536
2018-06-09T10:28:42.612Z,10672
2018-06-09T10:29:44.011Z,11900
2018-06-09T10:30:45.422Z,10952
2018-06-09T10:31:46.824Z,13052
2018-06-09T10:32:48.252Z,13268
2018-06-09T10:33:49.627Z,9392
2018-06-09T10:34:51.031Z,8332
2018-06-09T10:35:52.431Z,7812
2018-06-09T10:36:53.831Z,8860
2018-06-09T10:37:55.236Z,11900
2018-06-09T10:38:56.640Z,9988
2018-06-09T10:39:58.049Z,8660
2018-06-09T10:40:59.452Z,12284
2018-06-09T10:42:00.849Z,13048
2018-06-09T10:43:02.253Z,11492
2018-06-09T10:44:03.666Z,13544
2018-06-09T10:45:05.079Z,13212
2018-06-09T10:46:06.485Z,13492
2018-06-09T10:47:07.892Z,13452
2018-06-09T10:48:09.295Z,13164
2018-06-09T10:49:10.699Z,13976
2018-06-09T10:50:12.106Z,12056
2018-06-09T10:51:13.537Z,9884
2018-06-09T10:52:14.938Z,12772
2018-06-09T10:53:16.343Z,14128
2018-06-09T10:54:17.751Z,14240
2018-06-09T10:55:19.150Z,9168
2018-06-09T10:56:20.551Z,5992
2018-06-09T10:57:21.954Z,5700
2018-06-09T10:58:23.394Z,6192
2018-06-09T10:59:24.837Z,12636
2018-06-09T11:00:26.215Z,14008
2018-06-09T11:01:27.642Z,15096
2018-06-09T11:02:29.026Z,15608
2018-06-09T11:03:30.426Z,16704
2018-06-09T11:04:31.828Z,10384
2018-06-09T11:05:33.230Z,10056
2018-06-09T11:06:34.635Z,9352
2018-06-09T11:07:36.037Z,9588
2018-06-09T11:08:37.443Z,9824
2018-06-09T11:09:38.846Z,10440
2018-06-09T11:10:40.254Z,17280
2018-06-09T11:11:41.657Z,8112
2018-06-09T11:12:43.063Z,7020
2018-06-09T11:13:44.466Z,7004
2018-06-09T11:14:45.874Z,10824
2018-06-09T11:15:47.279Z,18816
2018-06-09T11:16:48.681Z,19232
2018-06-09T11:17:50.087Z,17504
2018-06-09T11:18:51.487Z,20544
2018-06-09T11:19:52.894Z,21280
2018-06-09T11:20:54.303Z,19328
2018-06-09T11:21:55.706Z,18944
2018-06-09T11:22:57.142Z,20736
2018-06-09T11:23:58.541Z,21184
2018-06-09T11:24:59.944Z,20608
2018-06-09T11:26:01.363Z,12480
2018-06-09T11:27:02.800Z,7284
2018-06-09T11:28:04.176Z,6096
2018-06-09T11:29:05.585Z,5504
2018-06-09T11:30:06.998Z,5228
2018-06-09T11:31:08.404Z,5060
2018-06-09T11:32:09.833Z,5052
2018-06-09T11:33:11.234Z,5268
2018-06-09T11:34:12.651Z,5544
2018-06-09T11:35:14.053Z,6224
2018-06-09T11:36:15.455Z,7472
2018-06-09T11:37:16.862Z,9732
2018-06-09T11:38:18.265Z,8076
2018-06-09T11:39:19.666Z,8628
2018-06-09T11:40:21.074Z,15212
2018-06-09T11:41:22.483Z,20768
2018-06-09T11:42:23.886Z,21504
2018-06-09T11:43:25.290Z,20768
2018-06-09T11:44:26.707Z,18496
2018-06-09T11:45:28.109Z,14756
2018-06-09T11:46:29.537Z,18048
2018-06-09T11:47:30.944Z,20032
2018-06-09T11:48:32.373Z,20032
2018-06-09T11:49:33.778Z,20064
2018-06-09T11:50:35.186Z,20416
2018-06-09T11:51:36.595Z,17824
2018-06-09T11:52:38.000Z,10064
2018-06-09T11:53:39.408Z,10788
2018-06-09T11:54:40.809Z,18368
2018-06-09T11:55:42.213Z,19616
2018-06-09T11:56:43.622Z,18656
2018-06-09T11:57:45.032Z,17472
2018-06-09T11:58:46.441Z,16608
2018-06-09T11:59:47.844Z,12056
2018-06-09T12:00:49.249Z,11936
2018-06-09T12:01:50.707Z,13272
2018-06-09T12:02:52.066Z,16128
2018-06-09T12:03:53.463Z,15588
2018-06-09T12:04:54.874Z,19776
2018-06-09T12:05:56.279Z,20224
2018-06-09T12:06:57.685Z,20832
2018-06-09T12:07:59.097Z,18080
2018-06-09T12:09:00.488Z,11048
2018-06-09T12:10:01.926Z,7776
2018-06-09T12:11:03.398Z,6828
2018-06-09T12:12:04.783Z,6500
2018-06-09T12:13:06.183Z,6480
2018-06-09T12:14:07.588Z,6536
2018-06-09T12:15:08.992Z,6608
2018-06-09T12:16:10.397Z,6936
2018-06-09T12:17:11.841Z,7344
2018-06-09T12:18:13.210Z,7704
2018-06-09T12:19:14.636Z,8464
2018-06-09T12:20:16.047Z,14208
2018-06-09T12:21:17.453Z,17408
2018-06-09T12:22:18.861Z,17888
2018-06-09T12:23:20.267Z,16992
2018-06-09T12:24:21.675Z,10996
2018-06-09T12:25:23.082Z,7560
2018-06-09T12:26:24.486Z,6888
2018-06-09T12:27:25.898Z,6248
2018-06-09T12:28:27.300Z,6080
2018-06-09T12:29:28.703Z,6308
2018-06-09T12:30:30.150Z,7048
2018-06-09T12:31:31.558Z,13560
2018-06-09T12:32:32.966Z,17792
2018-06-09T12:33:34.367Z,8244
2018-06-09T12:34:35.776Z,7020
2018-06-09T12:35:37.176Z,6692
2018-06-09T12:36:38.580Z,6916
2018-06-09T12:37:39.984Z,7692
2018-06-09T12:38:41.389Z,12120
2018-06-09T12:39:42.797Z,18048
2018-06-09T12:40:44.202Z,14040
2018-06-09T12:41:46.215Z,10240
2018-06-09T12:42:47.618Z,10904
2018-06-09T12:43:49.022Z,16256
2018-06-09T12:44:50.425Z,18240
2018-06-09T12:45:51.840Z,16512
2018-06-09T12:46:53.250Z,16000
2018-06-09T12:47:54.649Z,7628
2018-06-09T12:48:56.056Z,6332
2018-06-09T12:49:57.460Z,5608
2018-06-09T12:50:58.894Z,5116
2018-06-09T12:52:00.270Z,4752
2018-06-09T12:53:01.791Z,4496
2018-06-09T12:54:03.218Z,4348
2018-06-09T12:55:04.645Z,4384
2018-06-09T12:56:06.059Z,4520
2018-06-09T12:57:07.512Z,4848
2018-06-09T12:58:08.911Z,5036
2018-06-09T12:59:10.316Z,5408
2018-06-09T13:00:11.738Z,5576
2018-06-09T13:01:13.140Z,5600
2018-06-09T13:02:14.548Z,5700
2018-06-09T13:03:15.952Z,5944
2018-06-09T13:04:17.355Z,6372
2018-06-09T13:05:18.759Z,6808
2018-06-09T13:06:20.161Z,10176
2018-06-09T13:07:21.569Z,7976
2018-06-09T13:08:22.968Z,7536
2018-06-09T13:09:24.400Z,7240
2018-06-09T13:10:25.807Z,7228
2018-06-09T13:11:27.211Z,7544
2018-06-09T13:12:28.616Z,7800
2018-06-09T13:13:30.023Z,14752
2018-06-09T13:14:31.428Z,16480
2018-06-09T13:15:32.834Z,17344
2018-06-09T13:16:34.239Z,17376
2018-06-09T13:17:35.647Z,17408
2018-06-09T13:18:37.051Z,16704
2018-06-09T13:19:38.469Z,16256
2018-06-09T13:20:39.872Z,17120
2018-06-09T13:21:41.276Z,19200
2018-06-09T13:22:42.712Z,17504
2018-06-09T13:23:44.098Z,17152
2018-06-09T13:24:45.514Z,18112
2018-06-09T13:25:46.908Z,18112
2018-06-09T13:26:48.311Z,17568
2018-06-09T13:27:49.719Z,17024
2018-06-09T13:28:51.136Z,15552
2018-06-09T13:29:52.541Z,15872
2018-06-09T13:30:53.946Z,17984
2018-06-09T13:31:55.357Z,18016
2018-06-09T13:32:56.760Z,18592
2018-06-09T13:33:58.166Z,16768
2018-06-09T13:34:59.569Z,17600
2018-06-09T13:36:00.984Z,17184
2018-06-09T13:37:02.442Z,17760
2018-06-09T13:38:03.848Z,17472
2018-06-09T13:39:05.256Z,16320
2018-06-09T13:40:06.659Z,16832
2018-06-09T13:41:08.062Z,17280
2018-06-09T13:42:09.465Z,17216
2018-06-09T13:43:10.874Z,16064
2018-06-09T13:44:12.283Z,16672
2018-06-09T13:45:13.688Z,11440
2018-06-09T13:46:15.096Z,16032
2018-06-09T13:47:17.203Z,17504
2018-06-09T13:48:18.616Z,17632
2018-06-09T13:49:20.021Z,18048
2018-06-09T13:50:21.424Z,17280
2018-06-09T13:51:22.851Z,16576
2018-06-09T13:52:24.255Z,15360
2018-06-09T13:53:25.667Z,15488
2018-06-09T13:54:27.080Z,14356
2018-06-09T13:55:28.476Z,16224
2018-06-09T13:56:29.885Z,15680
2018-06-09T13:57:31.288Z,15712
2018-06-09T13:58:32.696Z,15808
2018-06-09T13:59:34.104Z,15968